CMP720 MPTO-MHPR
Flight info
| Callsign | CMP720 |
|---|---|
| Flight time | 1h 36m |
| Altitude | 34000 |
| Route | SIMAN ISEBA LIBIS LIBI1B |
| Aircraft | B738/M-SDE3FGHIRWY/S |
Departure
| Time | 2026-05-06 01:28 |
|---|---|
| Airport | Tocumen International Airport (MPTO) |
Arrival
| Time | 2026-05-06 03:04 |
|---|---|
| Airport | Palmerola International Airport (MHPR) |
| Time | Latitude | Longitude | Altitude | Speed | Heading |
|---|---|---|---|---|---|
| 2026-05-06 00:57 | 9.06264 | -79.38891 | 29 ft | 0 kts | 280° |
| 2026-05-06 01:18 | 9.06262 | -79.38881 | 29 ft | 3 kts | 282° |
| 2026-05-06 01:18 | 9.06257 | -79.38862 | 29 ft | 3 kts | 288° |
| 2026-05-06 01:19 | 9.06250 | -79.38842 | 29 ft | 3 kts | 295° |
| 2026-05-06 01:19 | 9.06241 | -79.38824 | 29 ft | 3 kts | 305° |
| 2026-05-06 01:19 | 9.06228 | -79.38809 | 29 ft | 3 kts | 324° |
| 2026-05-06 01:19 | 9.06212 | -79.38802 | 29 ft | 2 kts | 1° |
| 2026-05-06 01:20 | 9.06207 | -79.38802 | 29 ft | 0 kts | 10° |
| 2026-05-06 01:23 | 9.06221 | -79.38799 | 29 ft | 4 kts | 10° |
| 2026-05-06 01:23 | 9.06267 | -79.38794 | 29 ft | 9 kts | 2° |
| 2026-05-06 01:23 | 9.06349 | -79.38788 | 29 ft | 14 kts | 11° |
| 2026-05-06 01:23 | 9.06376 | -79.38704 | 29 ft | 17 kts | 117° |
| 2026-05-06 01:24 | 9.06288 | -79.38623 | 29 ft | 19 kts | 175° |
| 2026-05-06 01:24 | 9.06150 | -79.38649 | 29 ft | 21 kts | 206° |
| 2026-05-06 01:24 | 9.06017 | -79.38724 | 29 ft | 23 kts | 209° |
| 2026-05-06 01:24 | 9.05875 | -79.38805 | 29 ft | 24 kts | 210° |
| 2026-05-06 01:25 | 9.05723 | -79.38893 | 29 ft | 26 kts | 210° |
| 2026-05-06 01:25 | 9.05562 | -79.38987 | 29 ft | 27 kts | 210° |
| 2026-05-06 01:25 | 9.05393 | -79.39085 | 29 ft | 29 kts | 210° |
| 2026-05-06 01:25 | 9.05217 | -79.39186 | 29 ft | 29 kts | 209° |
| 2026-05-06 01:26 | 9.05048 | -79.39281 | 29 ft | 27 kts | 210° |
| 2026-05-06 01:26 | 9.04890 | -79.39372 | 29 ft | 24 kts | 202° |
| 2026-05-06 01:26 | 9.04795 | -79.39303 | 30 ft | 17 kts | 118° |
| 2026-05-06 01:26 | 9.04843 | -79.39215 | 30 ft | 17 kts | 30° |
| 2026-05-06 01:27 | 9.04991 | -79.39131 | 31 ft | 47 kts | 29° |
| 2026-05-06 01:27 | 9.05481 | -79.38852 | 29 ft | 112 kts | 29° |
| 2026-05-06 01:27 | 9.06322 | -79.38372 | 31 ft | 163 kts | 32° |
| 2026-05-06 01:27 | 9.07407 | -79.37765 | 298 ft | 183 kts | 27° |
| 2026-05-06 01:28 | 9.08499 | -79.37152 | 1085 ft | 179 kts | 29° |
| 2026-05-06 01:28 | 9.09648 | -79.36491 | 1578 ft | 198 kts | 28° |
| 2026-05-06 01:28 | 9.10853 | -79.35797 | 2255 ft | 204 kts | 29° |
| 2026-05-06 01:28 | 9.12162 | -79.35051 | 2480 ft | 229 kts | 29° |
| 2026-05-06 01:29 | 9.13629 | -79.34217 | 2725 ft | 253 kts | 29° |
| 2026-05-06 01:29 | 9.15188 | -79.33330 | 3424 ft | 259 kts | 29° |
| 2026-05-06 01:29 | 9.16256 | -79.32723 | 3982 ft | 261 kts | 30° |
| 2026-05-06 01:29 | 9.18369 | -79.31520 | 5030 ft | 266 kts | 30° |
| 2026-05-06 01:30 | 9.19462 | -79.30898 | 5586 ft | 267 kts | 30° |
| 2026-05-06 01:30 | 9.21142 | -79.30081 | 6357 ft | 272 kts | 15° |
| 2026-05-06 01:30 | 9.23035 | -79.30046 | 7037 ft | 278 kts | 348° |
| 2026-05-06 01:30 | 9.24793 | -79.30879 | 7759 ft | 285 kts | 323° |
| 2026-05-06 01:31 | 9.26056 | -79.32442 | 8439 ft | 292 kts | 297° |
| 2026-05-06 01:31 | 9.26620 | -79.34432 | 9119 ft | 299 kts | 278° |
| 2026-05-06 01:31 | 9.26753 | -79.36556 | 9801 ft | 304 kts | 272° |
| 2026-05-06 01:31 | 9.26772 | -79.38704 | 10419 ft | 308 kts | 271° |
| 2026-05-06 01:32 | 9.26783 | -79.40890 | 11066 ft | 312 kts | 271° |
| 2026-05-06 01:32 | 9.26810 | -79.43099 | 11747 ft | 316 kts | 271° |
| 2026-05-06 01:32 | 9.26851 | -79.45336 | 12432 ft | 319 kts | 272° |
| 2026-05-06 01:32 | 9.26898 | -79.47594 | 13123 ft | 323 kts | 272° |
| 2026-05-06 01:33 | 9.26960 | -79.49885 | 13783 ft | 328 kts | 272° |
| 2026-05-06 01:33 | 9.27034 | -79.52204 | 14404 ft | 332 kts | 272° |
| 2026-05-06 01:33 | 9.27118 | -79.54549 | 15061 ft | 335 kts | 275° |
| 2026-05-06 01:33 | 9.27537 | -79.56887 | 15611 ft | 342 kts | 286° |
| 2026-05-06 01:34 | 9.28209 | -79.59211 | 16179 ft | 348 kts | 288° |
| 2026-05-06 01:34 | 9.28931 | -79.61561 | 16820 ft | 351 kts | 288° |
| 2026-05-06 01:34 | 9.29656 | -79.63934 | 17470 ft | 355 kts | 288° |
| 2026-05-06 01:34 | 9.30375 | -79.66336 | 18113 ft | 359 kts | 287° |
| 2026-05-06 01:35 | 9.31089 | -79.68771 | 18683 ft | 362 kts | 287° |
| 2026-05-06 01:35 | 9.31800 | -79.71225 | 19275 ft | 364 kts | 287° |
| 2026-05-06 01:35 | 9.32511 | -79.73699 | 19780 ft | 369 kts | 287° |
| 2026-05-06 01:35 | 9.33228 | -79.76205 | 20309 ft | 373 kts | 287° |
| 2026-05-06 01:36 | 9.33952 | -79.78735 | 20892 ft | 374 kts | 287° |
| 2026-05-06 01:36 | 9.34675 | -79.81264 | 21560 ft | 374 kts | 287° |
| 2026-05-06 01:36 | 9.35400 | -79.83799 | 22143 ft | 376 kts | 287° |
| 2026-05-06 01:36 | 9.36121 | -79.86352 | 22717 ft | 378 kts | 285° |
| 2026-05-06 01:37 | 9.36534 | -79.88985 | 23255 ft | 381 kts | 276° |
| 2026-05-06 01:37 | 9.36728 | -79.91678 | 23739 ft | 384 kts | 274° |
| 2026-05-06 01:37 | 9.36861 | -79.94386 | 24167 ft | 387 kts | 273° |
| 2026-05-06 01:37 | 9.36983 | -79.97127 | 24587 ft | 390 kts | 273° |
| 2026-05-06 01:38 | 9.37115 | -79.99879 | 25009 ft | 393 kts | 274° |
| 2026-05-06 01:38 | 9.37260 | -80.02653 | 25452 ft | 395 kts | 274° |
| 2026-05-06 01:38 | 9.37416 | -80.05436 | 25865 ft | 398 kts | 274° |
| 2026-05-06 01:38 | 9.37583 | -80.08245 | 26300 ft | 401 kts | 274° |
| 2026-05-06 01:39 | 9.37756 | -80.11066 | 26736 ft | 402 kts | 274° |
| 2026-05-06 01:39 | 9.37933 | -80.13900 | 27161 ft | 404 kts | 274° |
| 2026-05-06 01:39 | 9.38112 | -80.16751 | 27565 ft | 407 kts | 274° |
| 2026-05-06 01:39 | 9.38292 | -80.19616 | 27958 ft | 410 kts | 274° |
| 2026-05-06 01:40 | 9.38475 | -80.22510 | 28351 ft | 412 kts | 274° |
| 2026-05-06 01:40 | 9.38657 | -80.25409 | 28750 ft | 414 kts | 274° |
| 2026-05-06 01:40 | 9.38840 | -80.28328 | 29153 ft | 416 kts | 274° |
| 2026-05-06 01:40 | 9.39024 | -80.31262 | 29552 ft | 418 kts | 274° |
| 2026-05-06 01:41 | 9.39209 | -80.34210 | 29926 ft | 421 kts | 274° |
| 2026-05-06 01:41 | 9.39394 | -80.37174 | 30224 ft | 424 kts | 274° |
| 2026-05-06 01:41 | 9.39580 | -80.40160 | 30527 ft | 426 kts | 274° |
| 2026-05-06 01:41 | 9.39767 | -80.43154 | 30852 ft | 427 kts | 274° |
| 2026-05-06 01:42 | 9.39954 | -80.46162 | 31183 ft | 429 kts | 274° |
| 2026-05-06 01:42 | 9.40141 | -80.49180 | 31500 ft | 430 kts | 274° |
| 2026-05-06 01:42 | 9.40330 | -80.52211 | 31790 ft | 432 kts | 274° |
| 2026-05-06 01:42 | 9.40518 | -80.55258 | 32083 ft | 434 kts | 274° |
| 2026-05-06 01:43 | 9.40707 | -80.58314 | 32381 ft | 436 kts | 274° |
| 2026-05-06 01:43 | 9.40896 | -80.61377 | 32664 ft | 437 kts | 274° |
| 2026-05-06 01:43 | 9.41087 | -80.64463 | 32941 ft | 439 kts | 274° |
| 2026-05-06 01:43 | 9.41277 | -80.67550 | 33219 ft | 441 kts | 274° |
| 2026-05-06 01:44 | 9.41468 | -80.70654 | 33484 ft | 443 kts | 274° |
| 2026-05-06 01:44 | 9.41659 | -80.73770 | 33756 ft | 444 kts | 274° |
| 2026-05-06 01:44 | 9.41851 | -80.76895 | 33997 ft | 445 kts | 274° |
| 2026-05-06 01:44 | 9.42043 | -80.80034 | 34190 ft | 448 kts | 274° |
| 2026-05-06 01:45 | 9.42236 | -80.83185 | 34415 ft | 449 kts | 274° |
| 2026-05-06 01:45 | 9.42429 | -80.86343 | 34640 ft | 450 kts | 274° |
| 2026-05-06 01:45 | 9.42622 | -80.89511 | 34848 ft | 451 kts | 274° |
| 2026-05-06 01:45 | 9.42815 | -80.92682 | 35064 ft | 452 kts | 274° |
| 2026-05-06 01:46 | 9.43008 | -80.95868 | 35249 ft | 454 kts | 274° |
| 2026-05-06 01:46 | 9.43203 | -80.99066 | 35437 ft | 456 kts | 274° |
| 2026-05-06 01:46 | 9.43397 | -81.02273 | 35623 ft | 457 kts | 274° |
| 2026-05-06 01:46 | 9.43592 | -81.05490 | 35844 ft | 457 kts | 274° |
| 2026-05-06 01:47 | 9.43786 | -81.08703 | 36101 ft | 457 kts | 274° |
| 2026-05-06 01:47 | 9.43979 | -81.11907 | 36331 ft | 457 kts | 274° |
| 2026-05-06 01:47 | 9.44173 | -81.15121 | 36556 ft | 457 kts | 274° |
| 2026-05-06 01:47 | 9.44366 | -81.18328 | 36806 ft | 456 kts | 274° |
| 2026-05-06 01:48 | 9.44558 | -81.21528 | 37083 ft | 455 kts | 274° |
| 2026-05-06 01:48 | 9.44750 | -81.24721 | 37358 ft | 453 kts | 274° |
| 2026-05-06 01:48 | 9.44940 | -81.27905 | 37590 ft | 453 kts | 274° |
| 2026-05-06 01:48 | 9.45131 | -81.31086 | 37809 ft | 452 kts | 274° |
| 2026-05-06 01:49 | 9.45320 | -81.34258 | 37939 ft | 452 kts | 274° |
| 2026-05-06 01:49 | 9.45510 | -81.37443 | 37927 ft | 453 kts | 274° |
| 2026-05-06 01:49 | 9.45888 | -81.43807 | 37936 ft | 453 kts | 274° |
| 2026-05-06 01:50 | 9.46266 | -81.50166 | 37940 ft | 452 kts | 274° |
| 2026-05-06 01:50 | 9.46641 | -81.56521 | 37936 ft | 451 kts | 274° |
| 2026-05-06 01:51 | 9.46995 | -81.62522 | 37938 ft | 451 kts | 274° |
| 2026-05-06 01:51 | 9.47367 | -81.68858 | 37935 ft | 451 kts | 274° |
| 2026-05-06 01:52 | 9.47739 | -81.75198 | 37938 ft | 451 kts | 274° |
| 2026-05-06 01:52 | 9.48109 | -81.81534 | 37938 ft | 451 kts | 274° |
| 2026-05-06 01:53 | 9.48478 | -81.87873 | 37941 ft | 451 kts | 274° |
| 2026-05-06 01:53 | 9.48846 | -81.94210 | 37940 ft | 451 kts | 274° |
| 2026-05-06 01:54 | 9.49213 | -82.00554 | 37937 ft | 451 kts | 274° |
| 2026-05-06 01:54 | 9.49579 | -82.06904 | 37943 ft | 452 kts | 274° |
| 2026-05-06 01:55 | 9.49945 | -82.13257 | 37939 ft | 452 kts | 274° |
| 2026-05-06 01:55 | 9.50308 | -82.19605 | 37945 ft | 452 kts | 274° |
| 2026-05-06 01:56 | 9.50672 | -82.25968 | 37941 ft | 452 kts | 273° |
| 2026-05-06 01:56 | 9.51034 | -82.32334 | 37943 ft | 452 kts | 273° |
| 2026-05-06 01:57 | 9.51396 | -82.38698 | 37947 ft | 452 kts | 273° |
| 2026-05-06 01:57 | 9.51756 | -82.45060 | 37950 ft | 452 kts | 273° |
| 2026-05-06 01:58 | 9.52114 | -82.51416 | 37954 ft | 452 kts | 273° |
| 2026-05-06 01:58 | 9.52472 | -82.57775 | 37957 ft | 452 kts | 273° |
| 2026-05-06 01:59 | 9.52828 | -82.64135 | 37958 ft | 452 kts | 273° |
| 2026-05-06 01:59 | 9.53185 | -82.70529 | 37961 ft | 452 kts | 273° |
| 2026-05-06 02:00 | 9.53537 | -82.76840 | 37967 ft | 451 kts | 273° |
| 2026-05-06 02:00 | 9.53933 | -82.83183 | 37962 ft | 451 kts | 279° |
| 2026-05-06 02:01 | 9.54738 | -82.86280 | 37983 ft | 449 kts | 292° |
| 2026-05-06 02:01 | 9.56169 | -82.89090 | 37962 ft | 449 kts | 305° |
| 2026-05-06 02:01 | 9.60307 | -82.93800 | 37978 ft | 448 kts | 314° |
| 2026-05-06 02:02 | 9.64659 | -82.98275 | 37976 ft | 449 kts | 315° |
| 2026-05-06 02:02 | 9.69054 | -83.02836 | 37979 ft | 449 kts | 314° |
| 2026-05-06 02:03 | 9.73389 | -83.07396 | 37985 ft | 450 kts | 314° |
| 2026-05-06 02:03 | 9.77715 | -83.11975 | 37992 ft | 450 kts | 314° |
| 2026-05-06 02:04 | 9.82047 | -83.16568 | 37988 ft | 451 kts | 314° |
| 2026-05-06 02:04 | 9.86380 | -83.21163 | 37990 ft | 451 kts | 314° |
| 2026-05-06 02:05 | 9.90715 | -83.25761 | 37992 ft | 451 kts | 314° |
| 2026-05-06 02:05 | 9.95045 | -83.30354 | 37985 ft | 450 kts | 314° |
| 2026-05-06 02:06 | 9.99375 | -83.34948 | 37985 ft | 450 kts | 314° |
| 2026-05-06 02:06 | 10.03692 | -83.39532 | 37980 ft | 450 kts | 314° |
| 2026-05-06 02:07 | 10.08013 | -83.44121 | 37985 ft | 449 kts | 314° |
| 2026-05-06 02:07 | 10.12331 | -83.48709 | 37982 ft | 449 kts | 314° |
| 2026-05-06 02:08 | 10.16650 | -83.53300 | 37975 ft | 450 kts | 314° |
| 2026-05-06 02:08 | 10.20971 | -83.57895 | 37974 ft | 450 kts | 313° |
| 2026-05-06 02:09 | 10.25294 | -83.62494 | 37969 ft | 450 kts | 313° |
| 2026-05-06 02:09 | 10.29619 | -83.67098 | 37972 ft | 451 kts | 313° |
| 2026-05-06 02:10 | 10.33949 | -83.71708 | 37972 ft | 451 kts | 313° |
| 2026-05-06 02:10 | 10.38286 | -83.76328 | 37960 ft | 452 kts | 313° |
| 2026-05-06 02:11 | 10.42618 | -83.80945 | 37962 ft | 452 kts | 313° |
| 2026-05-06 02:11 | 10.46957 | -83.85571 | 37959 ft | 452 kts | 313° |
| 2026-05-06 02:12 | 10.51292 | -83.90194 | 37958 ft | 451 kts | 313° |
| 2026-05-06 02:12 | 10.55618 | -83.94810 | 37953 ft | 451 kts | 313° |
| 2026-05-06 02:13 | 10.59937 | -83.99421 | 37951 ft | 450 kts | 313° |
| 2026-05-06 02:13 | 10.64244 | -84.04021 | 37946 ft | 449 kts | 313° |
| 2026-05-06 02:14 | 10.68540 | -84.08611 | 37950 ft | 447 kts | 314° |
| 2026-05-06 02:14 | 10.72814 | -84.13180 | 37946 ft | 445 kts | 314° |
| 2026-05-06 02:15 | 10.77075 | -84.17737 | 37945 ft | 443 kts | 314° |
| 2026-05-06 02:15 | 10.81315 | -84.22273 | 37947 ft | 442 kts | 314° |
| 2026-05-06 02:16 | 10.85544 | -84.26799 | 37944 ft | 440 kts | 314° |
| 2026-05-06 02:16 | 10.89756 | -84.31310 | 37942 ft | 439 kts | 314° |
| 2026-05-06 02:17 | 10.93964 | -84.35818 | 37944 ft | 439 kts | 314° |
| 2026-05-06 02:17 | 10.98161 | -84.40316 | 37945 ft | 438 kts | 314° |
| 2026-05-06 02:18 | 11.02358 | -84.44815 | 37946 ft | 438 kts | 314° |
| 2026-05-06 02:18 | 11.05880 | -84.48594 | 37945 ft | 439 kts | 314° |
| 2026-05-06 02:19 | 11.10761 | -84.53831 | 37940 ft | 439 kts | 314° |
| 2026-05-06 02:19 | 11.14290 | -84.57620 | 37937 ft | 440 kts | 314° |
| 2026-05-06 02:20 | 11.20608 | -84.64407 | 37942 ft | 441 kts | 314° |
| 2026-05-06 02:21 | 11.24826 | -84.68940 | 37932 ft | 441 kts | 314° |
| 2026-05-06 02:21 | 11.29040 | -84.73472 | 37930 ft | 441 kts | 314° |
| 2026-05-06 02:22 | 11.33256 | -84.78007 | 37930 ft | 440 kts | 314° |
| 2026-05-06 02:22 | 11.37461 | -84.82534 | 37924 ft | 439 kts | 314° |
| 2026-05-06 02:23 | 11.41661 | -84.87056 | 37923 ft | 439 kts | 314° |
| 2026-05-06 02:23 | 11.45849 | -84.91568 | 37922 ft | 438 kts | 314° |
| 2026-05-06 02:24 | 11.50025 | -84.96069 | 37918 ft | 437 kts | 314° |
| 2026-05-06 02:24 | 11.54196 | -85.00566 | 37918 ft | 436 kts | 314° |
| 2026-05-06 02:25 | 11.58354 | -85.05051 | 37916 ft | 435 kts | 314° |
| 2026-05-06 02:25 | 11.62511 | -85.09538 | 37915 ft | 435 kts | 314° |
| 2026-05-06 02:26 | 11.66658 | -85.14016 | 37915 ft | 434 kts | 314° |
| 2026-05-06 02:26 | 11.70807 | -85.18497 | 37913 ft | 434 kts | 314° |
| 2026-05-06 02:27 | 11.74958 | -85.22983 | 37911 ft | 435 kts | 314° |
| 2026-05-06 02:27 | 11.79107 | -85.27470 | 37910 ft | 435 kts | 314° |
| 2026-05-06 02:28 | 11.83263 | -85.31966 | 37911 ft | 435 kts | 314° |
| 2026-05-06 02:28 | 11.87422 | -85.36467 | 37910 ft | 436 kts | 314° |
| 2026-05-06 02:29 | 11.91586 | -85.40976 | 37907 ft | 436 kts | 314° |
| 2026-05-06 02:29 | 11.95751 | -85.45488 | 37904 ft | 437 kts | 314° |
| 2026-05-06 02:30 | 11.99920 | -85.50007 | 37901 ft | 438 kts | 314° |
| 2026-05-06 02:30 | 12.04099 | -85.54538 | 37904 ft | 438 kts | 314° |
| 2026-05-06 02:31 | 12.08277 | -85.59072 | 37903 ft | 439 kts | 314° |
| 2026-05-06 02:31 | 12.12462 | -85.63614 | 37904 ft | 439 kts | 314° |
| 2026-05-06 02:32 | 12.16647 | -85.68159 | 37904 ft | 439 kts | 314° |
| 2026-05-06 02:32 | 12.20837 | -85.72712 | 37905 ft | 439 kts | 314° |
| 2026-05-06 02:33 | 12.25022 | -85.77261 | 37908 ft | 439 kts | 314° |
| 2026-05-06 02:33 | 12.26438 | -85.78800 | 37905 ft | 439 kts | 314° |
| 2026-05-06 02:34 | 12.33395 | -85.86369 | 37902 ft | 439 kts | 314° |
| 2026-05-06 02:34 | 12.37601 | -85.90948 | 37901 ft | 439 kts | 314° |
| 2026-05-06 02:35 | 12.41771 | -85.95491 | 37908 ft | 438 kts | 314° |
| 2026-05-06 02:35 | 12.45937 | -86.00031 | 37906 ft | 437 kts | 314° |
| 2026-05-06 02:36 | 12.50090 | -86.04559 | 37914 ft | 436 kts | 313° |
| 2026-05-06 02:36 | 12.54212 | -86.09056 | 37914 ft | 436 kts | 313° |
| 2026-05-06 02:37 | 12.58383 | -86.13607 | 37848 ft | 437 kts | 313° |
| 2026-05-06 02:37 | 12.60476 | -86.15893 | 37396 ft | 440 kts | 313° |
| 2026-05-06 02:37 | 12.62552 | -86.18160 | 37006 ft | 434 kts | 314° |
| 2026-05-06 02:37 | 12.64607 | -86.20405 | 36608 ft | 431 kts | 314° |
| 2026-05-06 02:38 | 12.66646 | -86.22634 | 36216 ft | 427 kts | 314° |
| 2026-05-06 02:38 | 12.68670 | -86.24846 | 35827 ft | 424 kts | 314° |
| 2026-05-06 02:38 | 12.70680 | -86.27044 | 35422 ft | 422 kts | 314° |
| 2026-05-06 02:38 | 12.72681 | -86.29232 | 35021 ft | 419 kts | 314° |
| 2026-05-06 02:39 | 12.74672 | -86.31409 | 34604 ft | 418 kts | 314° |
| 2026-05-06 02:39 | 12.76650 | -86.33574 | 34201 ft | 416 kts | 315° |
| 2026-05-06 02:39 | 12.78631 | -86.35741 | 33776 ft | 415 kts | 315° |
| 2026-05-06 02:39 | 12.80595 | -86.37891 | 33352 ft | 413 kts | 315° |
| 2026-05-06 02:40 | 12.82551 | -86.40033 | 32946 ft | 410 kts | 315° |
| 2026-05-06 02:40 | 12.84498 | -86.42164 | 32546 ft | 408 kts | 315° |
| 2026-05-06 02:40 | 12.86433 | -86.44284 | 32160 ft | 406 kts | 315° |
| 2026-05-06 02:40 | 12.88356 | -86.46391 | 31766 ft | 405 kts | 315° |
| 2026-05-06 02:41 | 12.90277 | -86.48496 | 31365 ft | 404 kts | 315° |
| 2026-05-06 02:41 | 12.92192 | -86.50596 | 30992 ft | 402 kts | 315° |
| 2026-05-06 02:41 | 12.94103 | -86.52690 | 30587 ft | 402 kts | 315° |
| 2026-05-06 02:41 | 12.96008 | -86.54779 | 30196 ft | 401 kts | 315° |
| 2026-05-06 02:42 | 12.97911 | -86.56867 | 29770 ft | 400 kts | 315° |
| 2026-05-06 02:42 | 12.99807 | -86.58947 | 29366 ft | 398 kts | 316° |
| 2026-05-06 02:42 | 13.01689 | -86.61014 | 28945 ft | 396 kts | 316° |
| 2026-05-06 02:42 | 13.03564 | -86.63072 | 28540 ft | 394 kts | 316° |
| 2026-05-06 02:43 | 13.05428 | -86.65119 | 28143 ft | 391 kts | 316° |
| 2026-05-06 02:43 | 13.07279 | -86.67152 | 27752 ft | 390 kts | 316° |
| 2026-05-06 02:43 | 13.09125 | -86.69180 | 27358 ft | 388 kts | 316° |
| 2026-05-06 02:43 | 13.10965 | -86.71201 | 26965 ft | 386 kts | 316° |
| 2026-05-06 02:44 | 13.12796 | -86.73214 | 26557 ft | 386 kts | 316° |
| 2026-05-06 02:44 | 13.14625 | -86.75224 | 26165 ft | 385 kts | 316° |
| 2026-05-06 02:44 | 13.16451 | -86.77231 | 25764 ft | 384 kts | 316° |
| 2026-05-06 02:44 | 13.18272 | -86.79234 | 25373 ft | 383 kts | 316° |
| 2026-05-06 02:45 | 13.20088 | -86.81232 | 24987 ft | 382 kts | 316° |
| 2026-05-06 02:45 | 13.21902 | -86.83227 | 24584 ft | 382 kts | 316° |
| 2026-05-06 02:45 | 13.23714 | -86.85222 | 24196 ft | 382 kts | 316° |
| 2026-05-06 02:45 | 13.25523 | -86.87213 | 23787 ft | 382 kts | 316° |
| 2026-05-06 02:46 | 13.27333 | -86.89206 | 23319 ft | 382 kts | 316° |
| 2026-05-06 02:46 | 13.29141 | -86.91197 | 22888 ft | 380 kts | 316° |
| 2026-05-06 02:46 | 13.30937 | -86.93176 | 22491 ft | 378 kts | 316° |
| 2026-05-06 02:46 | 13.32724 | -86.95146 | 22106 ft | 375 kts | 316° |
| 2026-05-06 02:47 | 13.34497 | -86.97100 | 21720 ft | 373 kts | 316° |
| 2026-05-06 02:47 | 13.36256 | -86.99039 | 21344 ft | 371 kts | 316° |
| 2026-05-06 02:47 | 13.38013 | -87.00976 | 20955 ft | 370 kts | 316° |
| 2026-05-06 02:47 | 13.39761 | -87.02904 | 20557 ft | 369 kts | 316° |
| 2026-05-06 02:48 | 13.41504 | -87.04827 | 20193 ft | 367 kts | 316° |
| 2026-05-06 02:48 | 13.43224 | -87.06726 | 19793 ft | 359 kts | 316° |
| 2026-05-06 02:48 | 13.44920 | -87.08599 | 19433 ft | 357 kts | 316° |
| 2026-05-06 02:48 | 13.46616 | -87.10470 | 19055 ft | 357 kts | 316° |
| 2026-05-06 02:49 | 13.48310 | -87.12339 | 18686 ft | 358 kts | 316° |
| 2026-05-06 02:49 | 13.50004 | -87.14210 | 18306 ft | 358 kts | 316° |
| 2026-05-06 02:49 | 13.51699 | -87.16082 | 17889 ft | 358 kts | 316° |
| 2026-05-06 02:49 | 13.53386 | -87.17947 | 17514 ft | 356 kts | 316° |
| 2026-05-06 02:50 | 13.55067 | -87.19805 | 17141 ft | 354 kts | 316° |
| 2026-05-06 02:50 | 13.56741 | -87.21656 | 16765 ft | 352 kts | 316° |
| 2026-05-06 02:50 | 13.58402 | -87.23493 | 16403 ft | 349 kts | 316° |
| 2026-05-06 02:50 | 13.60053 | -87.25318 | 16045 ft | 347 kts | 315° |
| 2026-05-06 02:51 | 13.61831 | -87.26958 | 15662 ft | 341 kts | 332° |
| 2026-05-06 02:51 | 13.63904 | -87.28014 | 15216 ft | 340 kts | 339° |
| 2026-05-06 02:51 | 13.66051 | -87.28976 | 14823 ft | 333 kts | 340° |
| 2026-05-06 02:51 | 13.68151 | -87.29902 | 14478 ft | 324 kts | 340° |
| 2026-05-06 02:52 | 13.70197 | -87.30808 | 14154 ft | 318 kts | 339° |
| 2026-05-06 02:52 | 13.72223 | -87.31713 | 13835 ft | 317 kts | 339° |
| 2026-05-06 02:52 | 13.74247 | -87.32626 | 13470 ft | 318 kts | 339° |
| 2026-05-06 02:52 | 13.76261 | -87.33540 | 13138 ft | 316 kts | 339° |
| 2026-05-06 02:53 | 13.78266 | -87.34453 | 12816 ft | 314 kts | 339° |
| 2026-05-06 02:53 | 13.80255 | -87.35361 | 12508 ft | 312 kts | 338° |
| 2026-05-06 02:53 | 13.82254 | -87.36274 | 12184 ft | 310 kts | 339° |
| 2026-05-06 02:53 | 13.84198 | -87.37163 | 11854 ft | 308 kts | 338° |
| 2026-05-06 02:54 | 13.85516 | -87.37766 | 11646 ft | 306 kts | 338° |
| 2026-05-06 02:54 | 13.87448 | -87.38651 | 11350 ft | 302 kts | 338° |
| 2026-05-06 02:54 | 13.89352 | -87.39523 | 11086 ft | 295 kts | 338° |
| 2026-05-06 02:54 | 13.91178 | -87.40360 | 10778 ft | 280 kts | 338° |
| 2026-05-06 02:55 | 13.92918 | -87.41158 | 10466 ft | 268 kts | 338° |
| 2026-05-06 02:55 | 13.94586 | -87.41921 | 10154 ft | 257 kts | 338° |
| 2026-05-06 02:55 | 13.96176 | -87.42652 | 9996 ft | 240 kts | 338° |
| 2026-05-06 02:55 | 13.97601 | -87.43434 | 9861 ft | 225 kts | 333° |
| 2026-05-06 02:56 | 13.98924 | -87.44237 | 9718 ft | 219 kts | 332° |
| 2026-05-06 02:56 | 14.00234 | -87.45031 | 9585 ft | 219 kts | 332° |
| 2026-05-06 02:56 | 14.01543 | -87.45820 | 9390 ft | 217 kts | 333° |
| 2026-05-06 02:56 | 14.02847 | -87.46606 | 9249 ft | 217 kts | 332° |
| 2026-05-06 02:57 | 14.04151 | -87.47388 | 9107 ft | 217 kts | 333° |
| 2026-05-06 02:57 | 14.05458 | -87.48171 | 8960 ft | 218 kts | 333° |
| 2026-05-06 02:57 | 14.06772 | -87.48957 | 8808 ft | 218 kts | 332° |
| 2026-05-06 02:57 | 14.08087 | -87.49744 | 8652 ft | 218 kts | 333° |
| 2026-05-06 02:58 | 14.09401 | -87.50529 | 8507 ft | 219 kts | 333° |
| 2026-05-06 02:58 | 14.10725 | -87.51320 | 8319 ft | 222 kts | 332° |
| 2026-05-06 02:58 | 14.12049 | -87.52232 | 7939 ft | 232 kts | 326° |
| 2026-05-06 02:58 | 14.13355 | -87.53218 | 7569 ft | 234 kts | 326° |
| 2026-05-06 02:59 | 14.14678 | -87.54215 | 7152 ft | 236 kts | 326° |
| 2026-05-06 02:59 | 14.16009 | -87.55216 | 6779 ft | 238 kts | 324° |
| 2026-05-06 02:59 | 14.17359 | -87.56195 | 6340 ft | 237 kts | 328° |
| 2026-05-06 02:59 | 14.18722 | -87.57121 | 5955 ft | 232 kts | 328° |
| 2026-05-06 03:00 | 14.20059 | -87.58023 | 5605 ft | 229 kts | 329° |
| 2026-05-06 03:00 | 14.21410 | -87.58895 | 5290 ft | 229 kts | 336° |
| 2026-05-06 03:00 | 14.22923 | -87.59289 | 4962 ft | 220 kts | 352° |
| 2026-05-06 03:00 | 14.24414 | -87.59541 | 4610 ft | 213 kts | 351° |
| 2026-05-06 03:01 | 14.25844 | -87.59796 | 4317 ft | 204 kts | 350° |
| 2026-05-06 03:01 | 14.27210 | -87.60048 | 4054 ft | 194 kts | 350° |
| 2026-05-06 03:01 | 14.28506 | -87.60290 | 3834 ft | 184 kts | 351° |
| 2026-05-06 03:01 | 14.29726 | -87.60519 | 3608 ft | 173 kts | 350° |
| 2026-05-06 03:02 | 14.30877 | -87.60735 | 3415 ft | 164 kts | 350° |
| 2026-05-06 03:02 | 14.31982 | -87.60942 | 3169 ft | 158 kts | 351° |
| 2026-05-06 03:02 | 14.33051 | -87.61142 | 2953 ft | 156 kts | 350° |
| 2026-05-06 03:02 | 14.34125 | -87.61344 | 2749 ft | 157 kts | 350° |
| 2026-05-06 03:03 | 14.35201 | -87.61545 | 2533 ft | 157 kts | 350° |
| 2026-05-06 03:03 | 14.36275 | -87.61751 | 2303 ft | 158 kts | 349° |
| 2026-05-06 03:03 | 14.37351 | -87.61949 | 2090 ft | 155 kts | 348° |
| 2026-05-06 03:03 | 14.38399 | -87.62145 | 2069 ft | 144 kts | 349° |
| 2026-05-06 03:04 | 14.38942 | -87.62247 | 2068 ft | 60 kts | 350° |
| 2026-05-06 03:04 | 14.39263 | -87.62304 | 2070 ft | 25 kts | 3° |
| 2026-05-06 03:04 | 14.39322 | -87.62221 | 2070 ft | 12 kts | 80° |
| 2026-05-06 03:04 | 14.39327 | -87.62137 | 2069 ft | 11 kts | 116° |
| 2026-05-06 03:05 | 14.39264 | -87.62112 | 2070 ft | 9 kts | 163° |
| 2026-05-06 03:05 | 14.39239 | -87.62060 | 2070 ft | 9 kts | 83° |
| 2026-05-06 03:05 | 14.39247 | -87.61999 | 2070 ft | 8 kts | 81° |
| 2026-05-06 03:05 | 14.39225 | -87.61950 | 2070 ft | 8 kts | 156° |
| 2026-05-06 03:06 | 14.39170 | -87.61938 | 2070 ft | 8 kts | 168° |
| 2026-05-06 03:06 | 14.39117 | -87.61928 | 2070 ft | 8 kts | 170° |
| 2026-05-06 03:06 | 14.39075 | -87.61903 | 2070 ft | 8 kts | 105° |
| 2026-05-06 03:06 | 14.39098 | -87.61857 | 2070 ft | 6 kts | 59° |
| 2026-05-06 03:07 | 14.39106 | -87.61840 | 2070 ft | 1 kts | 63° |
| 2026-05-06 03:07 | 14.39108 | -87.61837 | 2070 ft | 1 kts | 64° |
| 2026-05-06 03:07 | 14.39108 | -87.61835 | 2070 ft | 0 kts | 63° |